NORTHERN QUEENS  -  Air Quality Alert Air Quality Alert        SOUTHERN QUEENS  -  Air Quality Alert Air Quality Alert      

Active alerts

Northern Queens
  Details for Northern Queens Air Quality Alert
Southern Queens
  Details for Southern Queens Air Quality Alert


WXM80 ListenWXM80 Stop

You find our weather info also at:

UK Metoffice

WeatherCloud

Weather Underground

Northeastern Weather Network

AWEKAS

Citizen Weather Observer Program (CWOP)

HAMweather, WeatherForYou, PWS Weather


Weather Underground History page Text

Daily Summary for April 6, 2017 Units:  Metric    English   Both
« Previous Day
Next Day »
Daily Weekly Monthly Yearly Custom
  High: Low: Average:
Temperature: 13.3 °C 4.3 °C 7 °C
Dew Point: 13.1 °C 3.7 °C 6.2 °C
Humidity: 99 % 88 % 95 %
Wind Speed: 25.7 km/h 0.6 km/h 12.4 km/h
Wind Gust: 42.6 km/h - -
Wind:- - ESE
Pressure: 1015.1 hPa 987 hPa -
Precipitation: 0 mm    
Historical Graphs
 
 
Tabular Data for April 6, 2017
Time Temperature Dew Point Pressure Wind Wind Speed Wind Gust Humidity Rainfall Rate (Hourly)
00:03 6.2 °C 4.9 °C 1015.1 hPa SE 4.5 km/h 7.4 km/h 91 % 0 mm
00:08 6.2 °C 4.9 °C 1015.1 hPa ESE 2.9 km/h 8 km/h 91 % 0 mm
00:13 6.2 °C 4.9 °C 1015.1 hPa ESE 2.9 km/h 5.6 km/h 91 % 0 mm
00:18 6.2 °C 4.8 °C 1015.1 hPa SE 5.3 km/h 7.4 km/h 91 % 0 mm
00:19 6.2 °C 4.9 °C 1015.1 hPa SE 3.5 km/h 5.6 km/h 91 % 0 mm
00:24 6.2 °C 4.8 °C 1015.1 hPa SE 6.4 km/h 11.1 km/h 91 % 0 mm
00:29 6.2 °C 4.8 °C 1015.1 hPa SE 4.3 km/h 13 km/h 91 % 0 mm
00:34 6.2 °C 4.8 °C 1015.1 hPa South 0.8 km/h 4.8 km/h 91 % 0 mm
00:39 6.2 °C 4.9 °C 1015.1 hPa East 2.4 km/h 13 km/h 91 % 0 mm
00:44 6.2 °C 4.9 °C 1014.8 hPa SE 4.7 km/h 11.1 km/h 91 % 0 mm
00:49 6.2 °C 4.8 °C 1014.8 hPa East 7.6 km/h 13 km/h 91 % 0 mm
00:50 6.2 °C 4.9 °C 1014.8 hPa East 6.9 km/h 13 km/h 91 % 0 mm
00:55 6.2 °C 5 °C 1014.8 hPa East 5.6 km/h 13 km/h 92 % 0 mm
01:00 6.2 °C 5 °C 1014.8 hPa East 0.6 km/h 7.4 km/h 92 % 0 mm
01:05 6.2 °C 5 °C 1014.8 hPa East 5 km/h 11.1 km/h 92 % 0 mm
01:10 6.3 °C 5.1 °C 1014.8 hPa East 2.3 km/h 8 km/h 92 % 0 mm
01:15 6.3 °C 5.1 °C 1014.8 hPa East 5.6 km/h 11.3 km/h 92 % 0 mm
01:20 6.3 °C 5.1 °C 1014.4 hPa East 8.7 km/h 11.1 km/h 92 % 0 mm
01:25 6.3 °C 5.1 °C 1014.4 hPa East 3.4 km/h 9.3 km/h 92 % 0 mm
01:31 6.3 °C 5.1 °C 1014.4 hPa East 5.5 km/h 7.4 km/h 92 % 0 mm
01:36 6.4 °C 5.2 °C 1014.4 hPa ESE 4.5 km/h 7.4 km/h 92 % 0 mm
01:41 6.4 °C 5.2 °C 1014.4 hPa East 7.6 km/h 11.1 km/h 92 % 0 mm
01:46 6.4 °C 5 °C 1014.1 hPa East 3.5 km/h 7.4 km/h 91 % 0 mm
01:51 6.4 °C 5 °C 1014.1 hPa East 1.3 km/h 5.6 km/h 91 % 0 mm
01:56 6.4 °C 5.1 °C 1014.1 hPa ESE 5.6 km/h 11.1 km/h 91 % 0 mm
02:01 6.4 °C 5.1 °C 1014.1 hPa ESE 4.8 km/h 8 km/h 91 % 0 mm
02:06 6.4 °C 5.1 °C 1014.1 hPa SE 8.7 km/h 11.1 km/h 91 % 0 mm
02:11 6.4 °C 5.1 °C 1014.1 hPa East 5.3 km/h 11.1 km/h 91 % 0 mm
02:16 6.4 °C 4.9 °C 1013.8 hPa ESE 7.7 km/h 14.8 km/h 90 % 0 mm
02:21 6.4 °C 4.9 °C 1013.8 hPa East 7.6 km/h 11.3 km/h 90 % 0 mm
02:26 6.5 °C 5 °C 1014.1 hPa ESE 10 km/h 16.7 km/h 90 % 0 mm
02:31 6.5 °C 5 °C 1013.8 hPa East 7.6 km/h 11.3 km/h 90 % 0 mm
02:36 6.5 °C 5 °C 1013.8 hPa East 7.1 km/h 12.9 km/h 90 % 0 mm
02:41 6.5 °C 5 °C 1013.8 hPa East 9.3 km/h 13 km/h 90 % 0 mm
02:46 6.4 °C 4.9 °C 1013.4 hPa East 8.2 km/h 13 km/h 90 % 0 mm
02:51 6.4 °C 4.9 °C 1013.4 hPa East 9 km/h 11.3 km/h 90 % 0 mm
02:56 6.4 °C 4.9 °C 1013.4 hPa East 7.1 km/h 14.8 km/h 90 % 0 mm
03:01 6.4 °C 4.9 °C 1013.4 hPa East 11.4 km/h 14.8 km/h 90 % 0 mm
03:07 6.4 °C 4.9 °C 1013.4 hPa East 3.5 km/h 7.4 km/h 90 % 0 mm
03:12 6.4 °C 4.9 °C 1013.4 hPa ESE 5.1 km/h 9.3 km/h 90 % 0 mm
03:17 6.4 °C 4.9 °C 1013.4 hPa East 6 km/h 11.3 km/h 90 % 0 mm
03:22 6.4 °C 4.9 °C 1013.4 hPa East 7.6 km/h 11.1 km/h 90 % 0 mm
03:24 6.4 °C 4.9 °C 1013.4 hPa East 10.5 km/h 16.7 km/h 90 % 0 mm
03:29 6.3 °C 4.8 °C 1013.4 hPa East 5.6 km/h 11.1 km/h 90 % 0 mm
03:34 6.3 °C 4.8 °C 1013.4 hPa East 6.3 km/h 9.7 km/h 90 % 0 mm
03:39 6.3 °C 4.8 °C 1013.1 hPa East 10.3 km/h 13 km/h 90 % 0 mm
03:44 6.3 °C 4.8 °C 1013.1 hPa East 10.5 km/h 13 km/h 90 % 0 mm
03:49 6.3 °C 4.8 °C 1013.1 hPa East 7.2 km/h 14.8 km/h 90 % 0 mm
03:54 6.3 °C 4.8 °C 1013.1 hPa East 8.4 km/h 18.5 km/h 90 % 0 mm
03:59 6.2 °C 4.6 °C 1013.1 hPa East 13.7 km/h 16.7 km/h 89 % 0 mm
04:04 6.2 °C 4.5 °C 1012.8 hPa East 12.2 km/h 20.4 km/h 89 % 0 mm
04:09 6.1 °C 4.4 °C 1012.8 hPa East 13 km/h 20.4 km/h 89 % 0 mm
04:14 6.1 °C 4.4 °C 1012.8 hPa East 11.6 km/h 14.8 km/h 89 % 0 mm
04:19 6 °C 4.3 °C 1012.4 hPa East 14.6 km/h 20.9 km/h 89 % 0 mm
04:24 5.9 °C 4.1 °C 1012.8 hPa East 12.1 km/h 18.5 km/h 88 % 0 mm
04:29 5.8 °C 4.2 °C 1012.8 hPa East 8.2 km/h 14.8 km/h 89 % 0 mm
04:34 5.8 °C 4.1 °C 1012.8 hPa East 6.9 km/h 13 km/h 89 % 0 mm
04:39 5.8 °C 4.1 °C 1012.8 hPa East 11.1 km/h 22.2 km/h 89 % 0 mm
04:44 5.7 °C 4.1 °C 1012.8 hPa East 10.9 km/h 14.8 km/h 89 % 0 mm
04:49 5.7 °C 4.2 °C 1012.8 hPa East 10.3 km/h 16.7 km/h 90 % 0 mm
04:54 5.7 °C 4.2 °C 1012.8 hPa East 10.5 km/h 13 km/h 90 % 0 mm
04:59 5.6 °C 4.1 °C 1012.4 hPa East 15.3 km/h 20.4 km/h 90 % 0 mm
05:04 5.5 °C 4 °C 1013.1 hPa East 11.9 km/h 14.8 km/h 90 % 0 mm
05:09 5.5 °C 4 °C 1012.8 hPa East 11.1 km/h 14.8 km/h 90 % 0 mm
05:14 5.4 °C 3.9 °C 1012.8 hPa East 9.8 km/h 13 km/h 90 % 0 mm
05:19 5.4 °C 4.1 °C 1012.4 hPa East 10.5 km/h 13 km/h 91 % 0 mm
05:25 5.4 °C 4.1 °C 1012.1 hPa East 14.8 km/h 18.5 km/h 91 % 0 mm
05:30 5.3 °C 3.9 °C 1012.1 hPa East 13.2 km/h 18.5 km/h 91 % 0 mm
05:35 5.2 °C 4.1 °C 1012.1 hPa East 11.4 km/h 16.7 km/h 92 % 0 mm
05:40 5.2 °C 4 °C 1011.7 hPa East 12.1 km/h 13 km/h 92 % 0 mm
05:45 5.1 °C 3.9 °C 1012.1 hPa East 10.6 km/h 13 km/h 92 % 0 mm
05:50 5.1 °C 4 °C 1011.7 hPa East 9.3 km/h 13 km/h 93 % 0 mm
05:55 5 °C 3.9 °C 1011.4 hPa East 11.1 km/h 14.8 km/h 93 % 0 mm
06:00 5 °C 3.9 °C 1011.4 hPa East 10.6 km/h 13 km/h 93 % 0 mm
06:05 4.9 °C 3.9 °C 1011.1 hPa ENE 11.1 km/h 12.9 km/h 93 % 0 mm
06:10 4.8 °C 3.8 °C 1010.7 hPa East 11.9 km/h 17.7 km/h 93 % 0 mm
06:15 4.8 °C 3.8 °C 1010.7 hPa East 16.9 km/h 24.1 km/h 93 % 0 mm
06:20 4.7 °C 3.7 °C 1010.7 hPa East 15.8 km/h 20.4 km/h 93 % 0 mm
06:25 4.7 °C 3.8 °C 1010.4 hPa East 14 km/h 20.9 km/h 94 % 0 mm
06:30 4.7 °C 3.8 °C 1010 hPa ENE 14.6 km/h 18.5 km/h 94 % 0 mm
06:35 4.6 °C 3.7 °C 1010.4 hPa East 14.8 km/h 22.2 km/h 94 % 0 mm
06:40 4.6 °C 3.7 °C 1010 hPa East 15.3 km/h 16.7 km/h 94 % 0 mm
06:45 4.5 °C 3.8 °C 1010 hPa East 13.2 km/h 18.5 km/h 95 % 0 mm
06:50 4.5 °C 3.8 °C 1010 hPa ENE 13 km/h 16.7 km/h 95 % 0 mm
06:55 4.4 °C 3.7 °C 1010 hPa East 11.3 km/h 16.1 km/h 95 % 0 mm
07:00 4.4 °C 3.7 °C 1010 hPa ENE 8 km/h 14.8 km/h 95 % 0 mm
07:05 4.4 °C 3.7 °C 1010 hPa ENE 10.9 km/h 14.8 km/h 95 % 0 mm
07:10 4.4 °C 3.7 °C 1010 hPa East 9.8 km/h 13 km/h 95 % 0 mm
07:15 4.4 °C 3.7 °C 1010 hPa ENE 11.6 km/h 16.7 km/h 95 % 0 mm
07:20 4.4 °C 3.8 °C 1009.4 hPa ENE 13.2 km/h 16.7 km/h 96 % 0 mm
07:25 4.4 °C 3.7 °C 1009.4 hPa ENE 13.2 km/h 18.5 km/h 95 % 0 mm
07:30 4.3 °C 3.8 °C 1009 hPa ENE 14.6 km/h 18.5 km/h 96 % 0 mm
07:36 4.4 °C 3.8 °C 1009 hPa East 12.2 km/h 14.8 km/h 96 % 0 mm
07:41 4.4 °C 3.8 °C 1009.4 hPa ENE 14.6 km/h 20.4 km/h 96 % 0 mm
07:46 4.4 °C 3.8 °C 1009 hPa ENE 15.6 km/h 20.4 km/h 96 % 0 mm
07:51 4.4 °C 3.8 °C 1008.7 hPa East 17.2 km/h 24.1 km/h 96 % 0 mm
07:56 4.4 °C 3.8 °C 1008.7 hPa East 16.3 km/h 20.9 km/h 96 % 0 mm
08:01 4.4 °C 3.8 °C 1008.7 hPa ENE 17.9 km/h 22.2 km/h 96 % 0 mm
08:06 4.4 °C 3.9 °C 1008.7 hPa ENE 15.9 km/h 25.9 km/h 96 % 0 mm
08:11 4.4 °C 3.9 °C 1008.4 hPa ENE 17.1 km/h 22.5 km/h 96 % 0 mm
08:16 4.4 °C 3.9 °C 1008 hPa East 15.9 km/h 20.4 km/h 96 % 0 mm
08:21 4.4 °C 3.9 °C 1008 hPa East 17.9 km/h 24.1 km/h 96 % 0 mm
08:26 4.4 °C 3.9 °C 1007.7 hPa ENE 18 km/h 22.2 km/h 96 % 0 mm
08:31 4.5 °C 3.9 °C 1007.7 hPa East 20.8 km/h 22.5 km/h 96 % 0 mm
08:36 4.5 °C 3.9 °C 1007.3 hPa East 18.2 km/h 25.9 km/h 96 % 0 mm
08:41 4.5 °C 3.9 °C 1007.3 hPa ESE 16.9 km/h 24.1 km/h 96 % 0 mm
08:46 4.6 °C 4 °C 1007.3 hPa ENE 18.5 km/h 25.9 km/h 96 % 0 mm
08:51 4.6 °C 4.1 °C 1007 hPa East 20.1 km/h 25.9 km/h 97 % 0 mm
08:56 4.6 °C 4 °C 1007 hPa East 17.5 km/h 24.1 km/h 96 % 0 mm
09:01 4.6 °C 4.1 °C 1007.3 hPa East 17.5 km/h 22.2 km/h 96 % 0 mm
09:06 4.6 °C 4.1 °C 1007.3 hPa East 14 km/h 22.2 km/h 96 % 0 mm
09:11 4.7 °C 4.1 °C 1007 hPa East 15.1 km/h 20.4 km/h 96 % 0 mm
09:16 4.7 °C 4.1 °C 1007 hPa East 13.2 km/h 18.5 km/h 96 % 0 mm
09:21 4.7 °C 4.1 °C 1006.7 hPa East 13.5 km/h 14.8 km/h 96 % 0 mm
09:26 4.7 °C 4.2 °C 1006.3 hPa East 14.6 km/h 24.1 km/h 97 % 0 mm
09:32 4.7 °C 4.3 °C 1006.3 hPa East 17.2 km/h 24.1 km/h 97 % 0 mm
09:37 4.8 °C 4.3 °C 1006.3 hPa East 15.8 km/h 24.1 km/h 97 % 0 mm
09:42 4.8 °C 4.4 °C 1006.3 hPa East 15.9 km/h 20.4 km/h 97 % 0 mm
09:47 4.8 °C 4.2 °C 1006 hPa East 14 km/h 20.4 km/h 96 % 0 mm
09:52 4.9 °C 4.3 °C 1006 hPa East 14.8 km/h 22.5 km/h 96 % 0 mm
09:57 4.9 °C 4.3 °C 1006 hPa East 17.9 km/h 24.1 km/h 96 % 0 mm
10:02 4.9 °C 4.3 °C 1006 hPa East 15.6 km/h 18.5 km/h 96 % 0 mm
10:07 4.9 °C 4.3 °C 1005.6 hPa ENE 13.5 km/h 20.9 km/h 96 % 0 mm
10:12 4.9 °C 4.3 °C 1005.6 hPa East 18.5 km/h 24.1 km/h 96 % 0 mm
10:17 4.9 °C 4.3 °C 1005.6 hPa East 16.9 km/h 22.2 km/h 96 % 0 mm
10:22 4.9 °C 4.3 °C 1005.6 hPa ENE 13.4 km/h 16.7 km/h 96 % 0 mm
10:27 5 °C 4.4 °C 1005.3 hPa East 14.2 km/h 16.7 km/h 96 % 0 mm
10:32 5 °C 4.6 °C 1005.3 hPa East 14.5 km/h 22.5 km/h 97 % 0 mm
10:37 5.1 °C 4.6 °C 1005.3 hPa East 14.2 km/h 18.5 km/h 97 % 0 mm
10:42 5.1 °C 4.6 °C 1005 hPa East 13.7 km/h 16.7 km/h 97 % 0 mm
10:47 5.1 °C 4.7 °C 1004.6 hPa East 14.8 km/h 20.4 km/h 97 % 0 mm
10:52 5.1 °C 4.7 °C 1005 hPa East 14.2 km/h 22.2 km/h 97 % 0 mm
10:57 5.2 °C 4.7 °C 1004.6 hPa East 15.1 km/h 16.7 km/h 97 % 0 mm
11:02 5.2 °C 4.7 °C 1004.6 hPa East 11.3 km/h 14.8 km/h 97 % 0 mm
11:07 5.2 °C 4.7 °C 1004.6 hPa East 13.7 km/h 18.5 km/h 97 % 0 mm
11:12 5.2 °C 4.7 °C 1004.6 hPa ENE 11.4 km/h 18.5 km/h 97 % 0 mm
11:17 5.2 °C 4.8 °C 1004.6 hPa East 9.8 km/h 14.8 km/h 97 % 0 mm
11:22 5.2 °C 4.8 °C 1004.3 hPa East 11.4 km/h 16.7 km/h 97 % 0 mm
11:27 5.2 °C 4.8 °C 1003.9 hPa ENE 13.4 km/h 18.5 km/h 97 % 0 mm
11:32 5.2 °C 4.7 °C 1003.9 hPa ENE 12.4 km/h 16.7 km/h 97 % 0 mm
11:37 5.1 °C 4.7 °C 1004.3 hPa ENE 10.6 km/h 18.5 km/h 97 % 0 mm
11:42 5.1 °C 4.7 °C 1003.9 hPa East 13.5 km/h 17.7 km/h 97 % 0 mm
11:47 5.1 °C 4.7 °C 1003.6 hPa ENE 14.5 km/h 18.5 km/h 97 % 0 mm
11:52 5.1 °C 4.6 °C 1003.9 hPa ENE 14.5 km/h 20.4 km/h 97 % 0 mm
11:57 5.1 °C 4.6 °C 1003.9 hPa ENE 12.7 km/h 16.7 km/h 97 % 0 mm
12:02 5 °C 4.6 °C 1003.6 hPa ENE 14 km/h 16.7 km/h 97 % 0 mm
12:08 5 °C 4.6 °C 1003.3 hPa ENE 15.3 km/h 24.1 km/h 97 % 0 mm
12:13 4.9 °C 4.5 °C 1003.3 hPa East 14.6 km/h 22.2 km/h 97 % 0 mm
12:18 4.9 °C 4.5 °C 1003.3 hPa ENE 18 km/h 22.2 km/h 97 % 0 mm
12:23 4.9 °C 4.5 °C 1002.9 hPa ENE 16.3 km/h 22.5 km/h 97 % 0 mm
12:28 4.9 °C 4.5 °C 1002.6 hPa ENE 17.1 km/h 25.7 km/h 97 % 0 mm
12:33 4.9 °C 4.5 °C 1002.3 hPa East 20.6 km/h 25.9 km/h 97 % 0 mm
12:38 4.9 °C 4.5 °C 1001.6 hPa ENE 19.5 km/h 25.9 km/h 97 % 0 mm
12:43 4.9 °C 4.5 °C 1001.6 hPa ENE 15.9 km/h 29.6 km/h 97 % 0 mm
12:48 4.9 °C 4.5 °C 1001.6 hPa East 17.4 km/h 22.2 km/h 97 % 0 mm
12:53 4.9 °C 4.4 °C 1001.6 hPa East 16.4 km/h 24.1 km/h 97 % 0 mm
12:56 4.9 °C 4.4 °C 1001.2 hPa East 15.8 km/h 18.5 km/h 97 % 0 mm
13:01 4.9 °C 4.5 °C 1000.9 hPa ENE 20.3 km/h 24.1 km/h 97 % 0 mm
13:06 4.9 °C 4.5 °C 1000.9 hPa East 16.1 km/h 24.1 km/h 97 % 0 mm
13:11 5 °C 4.6 °C 1000.6 hPa ENE 20.1 km/h 24.1 km/h 97 % 0 mm
13:16 5 °C 4.6 °C 1000.6 hPa ENE 19 km/h 24.1 km/h 97 % 0 mm
13:21 5 °C 4.6 °C 999.9 hPa ENE 16.6 km/h 24.1 km/h 97 % 0 mm
13:27 5.1 °C 4.8 °C 999.9 hPa East 15.4 km/h 18.5 km/h 98 % 0 mm
13:32 5.1 °C 4.8 °C 999.5 hPa NE 16.1 km/h 22.5 km/h 98 % 0 mm
13:37 5.1 °C 4.8 °C 999.2 hPa East 16.6 km/h 22.2 km/h 98 % 0 mm
13:42 5.1 °C 4.7 °C 998.9 hPa ENE 21.2 km/h 27.8 km/h 97 % 0 mm
13:47 5.2 °C 4.7 °C 998.5 hPa ENE 20.1 km/h 29.6 km/h 97 % 0 mm
13:52 5.2 °C 4.9 °C 998.9 hPa ENE 16.6 km/h 22.2 km/h 98 % 0 mm
13:57 5.2 °C 4.9 °C 998.5 hPa ENE 20.6 km/h 25.9 km/h 98 % 0 mm
14:02 5.1 °C 4.7 °C 998.2 hPa East 19 km/h 27.8 km/h 97 % 0 mm
14:07 5.1 °C 4.8 °C 998.2 hPa ENE 22.4 km/h 27.8 km/h 98 % 0 mm
14:12 5.1 °C 4.8 °C 997.9 hPa East 19.8 km/h 29.6 km/h 98 % 0 mm
14:17 5.1 °C 4.8 °C 997.5 hPa ENE 22 km/h 35.2 km/h 98 % 0 mm
14:22 5.1 °C 4.8 °C 997.2 hPa East 19.8 km/h 37 km/h 98 % 0 mm
14:27 5.1 °C 4.8 °C 997.2 hPa East 25.7 km/h 31.5 km/h 98 % 0 mm
14:32 5.1 °C 4.8 °C 996.8 hPa East 18.8 km/h 27.8 km/h 98 % 0 mm
14:37 5.3 °C 5.1 °C 996.5 hPa East 19 km/h 22.2 km/h 98 % 0 mm
14:42 5.5 °C 5.2 °C 995.8 hPa ENE 22.2 km/h 33.3 km/h 98 % 0 mm
14:47 5.6 °C 5.3 °C 995.8 hPa East 21.6 km/h 31.5 km/h 98 % 0 mm
14:52 5.6 °C 5.3 °C 996.2 hPa ENE 22.2 km/h 25.9 km/h 98 % 0 mm
14:57 5.4 °C 5.2 °C 995.8 hPa East 19.3 km/h 29.6 km/h 98 % 0 mm
15:02 5.4 °C 5.1 °C 995.5 hPa ENE 19.6 km/h 29.6 km/h 98 % 0 mm
15:07 5.3 °C 5.1 °C 995.1 hPa ENE 20.9 km/h 27.4 km/h 98 % 0 mm
15:12 5.3 °C 5 °C 994.8 hPa ENE 18.2 km/h 22.5 km/h 98 % 0 mm
15:17 5.3 °C 5.1 °C 994.8 hPa ENE 20.9 km/h 25.7 km/h 98 % 0 mm
15:22 5.3 °C 5.1 °C 994.1 hPa ENE 22.5 km/h 35.4 km/h 98 % 0 mm
15:27 5.4 °C 5.1 °C 993.8 hPa ENE 23.8 km/h 40.2 km/h 98 % 0 mm
15:32 5.3 °C 5 °C 993.5 hPa East 20.9 km/h 38.6 km/h 98 % 0 mm
15:37 5.3 °C 5 °C 993.1 hPa ENE 20.1 km/h 31.5 km/h 98 % 0 mm
15:42 5.2 °C 4.9 °C 992.8 hPa ENE 21.7 km/h 27.8 km/h 98 % 0 mm
15:47 5.3 °C 5 °C 992.8 hPa ENE 18.8 km/h 22.2 km/h 98 % 0 mm
15:52 5.3 °C 5.1 °C 992.1 hPa East 21.6 km/h 29.6 km/h 98 % 0 mm
15:57 5.3 °C 5 °C 992.4 hPa East 21.2 km/h 21.2 km/h 98 % 0 mm
16:02 5.3 °C 5 °C 992.1 hPa ENE 23.8 km/h 29.6 km/h 98 % 0 mm
16:07 5.3 °C 5 °C 991.4 hPa East 22.5 km/h 29 km/h 98 % 0 mm
16:12 5.3 °C 5 °C 990.7 hPa East 24.1 km/h 27.8 km/h 98 % 0 mm
16:17 5.3 °C 5 °C 991.1 hPa ENE 22 km/h 29.6 km/h 98 % 0 mm
16:22 5.3 °C 5.1 °C 990.7 hPa East 22.4 km/h 29.6 km/h 98 % 0 mm
16:27 5.3 °C 5.1 °C 990.7 hPa East 15.9 km/h 24.1 km/h 98 % 0 mm
16:32 5.6 °C 5.3 °C 990.1 hPa East 15.1 km/h 22.2 km/h 98 % 0 mm
16:37 5.7 °C 5.4 °C 990.4 hPa ENE 12.9 km/h 24.1 km/h 98 % 0 mm
16:42 5.8 °C 5.6 °C 989.4 hPa ENE 19.6 km/h 24.1 km/h 98 % 0 mm
16:47 5.9 °C 5.6 °C 988.7 hPa East 18.8 km/h 22.5 km/h 98 % 0 mm
16:52 5.9 °C 5.6 °C 988.7 hPa East 19.3 km/h 27.4 km/h 98 % 0 mm
16:57 5.9 °C 5.7 °C 988 hPa East 20.4 km/h 22.5 km/h 98 % 0 mm
17:02 6.1 °C 5.8 °C 987.4 hPa ENE 17.4 km/h 22.2 km/h 98 % 0 mm
17:07 6.3 °C 6.1 °C 987.7 hPa East 20.9 km/h 29 km/h 98 % 0 mm
17:12 6.6 °C 6.3 °C 987 hPa East 15 km/h 20.4 km/h 98 % 0 mm
17:14 6.7 °C 6.4 °C 988 hPa ENE 5.1 km/h 13 km/h 98 % 0 mm
17:19 8.4 °C 8.2 °C 988 hPa South 20 km/h 31.5 km/h 98 % 0 mm
17:24 11.7 °C 11.4 °C 988.4 hPa SSW 13.4 km/h 18.5 km/h 98 % 0 mm
17:29 12.8 °C 12.7 °C 989.1 hPa SW 24.1 km/h 42.6 km/h 99 % 0 mm
17:34 13.3 °C 12.9 °C 989.1 hPa South 9.8 km/h 31.5 km/h 98 % 0 mm
17:39 13.3 °C 13 °C 989.1 hPa South 15 km/h 22.2 km/h 98 % 0 mm
17:44 13.3 °C 13.1 °C 989.1 hPa SSW 13 km/h 19.3 km/h 99 % 0 mm
17:49 13.2 °C 13.1 °C 989.1 hPa South 12.4 km/h 18.5 km/h 99 % 0 mm
17:54 13.1 °C 12.9 °C 989.1 hPa South 14.3 km/h 24.1 km/h 99 % 0 mm
17:59 13.1 °C 12.9 °C 988.7 hPa South 7.6 km/h 24.1 km/h 99 % 0 mm
18:04 12.9 °C 12.8 °C 988.7 hPa SW 11.6 km/h 18.5 km/h 99 % 0 mm
18:09 12.8 °C 12.7 °C 988.7 hPa SW 10.3 km/h 18.5 km/h 99 % 0 mm
18:14 12.7 °C 12.6 °C 988.7 hPa South 5.8 km/h 14.8 km/h 99 % 0 mm
18:20 12.7 °C 12.5 °C 988.4 hPa South 8.2 km/h 11.1 km/h 99 % 0 mm
18:25 12.6 °C 12.4 °C 988.7 hPa SSW 6.1 km/h 7.4 km/h 99 % 0 mm
18:30 12.5 °C 12.3 °C 988.7 hPa South 5.8 km/h 7.4 km/h 99 % 0 mm
18:35 12.4 °C 12.3 °C 988.4 hPa SSW 10.3 km/h 13 km/h 99 % 0 mm
18:40 12.4 °C 12.3 °C 988.4 hPa SSW 6.8 km/h 11.3 km/h 99 % 0 mm
18:45 12.4 °C 12.3 °C 988.4 hPa SSE 5 km/h 11.1 km/h 99 % 0 mm
18:50 12.4 °C 12.3 °C 988.4 hPa South 8.9 km/h 12.9 km/h 99 % 0 mm
18:55 12.3 °C 12 °C 988 hPa SSW 3.4 km/h 8 km/h 98 % 0 mm
19:00 12.3 °C 12 °C 988 hPa SSE 7.2 km/h 11.1 km/h 98 % 0 mm
19:05 12.3 °C 12 °C 988 hPa South 5.1 km/h 9.3 km/h 98 % 0 mm
19:10 12.2 °C 11.9 °C 988 hPa SSE 3.5 km/h 9.3 km/h 98 % 0 mm
19:15 12.2 °C 12 °C 987.7 hPa SSE 6.8 km/h 13 km/h 99 % 0 mm
19:20 12.1 °C 11.9 °C 988 hPa South 6.3 km/h 13 km/h 99 % 0 mm
19:25 12 °C 11.7 °C 988 hPa SSE 9.7 km/h 16.7 km/h 98 % 0 mm
19:31 11.9 °C 11.6 °C 987.7 hPa SSE 6.3 km/h 16.7 km/h 98 % 0 mm
19:36 11.8 °C 11.6 °C 988 hPa South 7.6 km/h 14.8 km/h 98 % 0 mm
19:41 11.8 °C 11.6 °C 988 hPa SE 8.7 km/h 12.9 km/h 98 % 0 mm
19:46 11.8 °C 11.6 °C 988 hPa SSE 8 km/h 11.1 km/h 98 % 0 mm
19:51 11.8 °C 11.5 °C 988 hPa South 5.5 km/h 11.1 km/h 98 % 0 mm
19:56 11.8 °C 11.5 °C 988 hPa South 7.2 km/h 13 km/h 98 % 0 mm
20:01 11.8 °C 11.6 °C 988 hPa South 5.6 km/h 9.7 km/h 98 % 0 mm
20:06 11.8 °C 11.6 °C 988 hPa South 5.8 km/h 12.9 km/h 98 % 0 mm
20:11 11.9 °C 11.6 °C 988.4 hPa South 12.6 km/h 20.4 km/h 98 % 0 mm
20:16 11.9 °C 11.6 °C 988.4 hPa SSW 8.7 km/h 18.5 km/h 98 % 0 mm
20:21 11.8 °C 11.6 °C 988.4 hPa SW 9.7 km/h 18.5 km/h 98 % 0 mm
20:26 11.8 °C 11.5 °C 988.4 hPa SSW 7.1 km/h 16.7 km/h 98 % 0 mm
20:31 11.7 °C 11.4 °C 988.4 hPa SW 10.8 km/h 22.2 km/h 98 % 0 mm
20:36 11.6 °C 11.3 °C 988.4 hPa SSW 5.5 km/h 11.1 km/h 98 % 0 mm
20:41 11.3 °C 11.1 °C 988.7 hPa South 9.3 km/h 13 km/h 98 % 0 mm
20:46 11.2 °C 10.9 °C 988.7 hPa SW 9.3 km/h 20.4 km/h 98 % 0 mm
20:51 11.1 °C 10.8 °C 988.7 hPa SSW 10.8 km/h 18.5 km/h 98 % 0 mm
20:56 10.9 °C 10.7 °C 988.7 hPa SW 11.9 km/h 18.5 km/h 98 % 0 mm
21:01 10.8 °C 10.6 °C 988.7 hPa SSW 9.8 km/h 13 km/h 98 % 0 mm
21:06 10.7 °C 10.3 °C 989.1 hPa South 12.4 km/h 19.3 km/h 97 % 0 mm
21:11 10.7 °C 10.2 °C 989.1 hPa SSW 12.9 km/h 22.2 km/h 97 % 0 mm
21:16 10.6 °C 10.2 °C 989.4 hPa SSW 11.3 km/h 22.2 km/h 97 % 0 mm
21:21 10.6 °C 10.1 °C 989.4 hPa WSW 7.9 km/h 13 km/h 97 % 0 mm
21:27 10.4 °C 10 °C 989.4 hPa WSW 12.2 km/h 22.2 km/h 97 % 0 mm
21:32 10.4 °C 9.8 °C 989.4 hPa SSW 11.4 km/h 22.2 km/h 96 % 0 mm
21:33 10.3 °C 9.7 °C 989.4 hPa SW 11.6 km/h 22.2 km/h 96 % 0 mm
21:38 10.3 °C 9.7 °C 989.4 hPa WSW 10.6 km/h 18.5 km/h 96 % 0 mm
21:43 10.2 °C 9.4 °C 989.7 hPa SW 10.1 km/h 22.2 km/h 95 % 0 mm
21:48 10.2 °C 9.3 °C 989.7 hPa SSW 12.4 km/h 18.5 km/h 94 % 0 mm
21:53 10.2 °C 9.2 °C 989.7 hPa SW 13 km/h 22.2 km/h 94 % 0 mm
21:58 10.2 °C 9.2 °C 989.7 hPa SW 5.8 km/h 18.5 km/h 94 % 0 mm
22:03 10.1 °C 9 °C 990.1 hPa SW 11.4 km/h 18.5 km/h 93 % 0 mm
22:08 10 °C 8.9 °C 990.1 hPa SW 10.8 km/h 24.1 km/h 93 % 0 mm
22:13 10 °C 8.8 °C 990.1 hPa SW 9.2 km/h 13 km/h 92 % 0 mm
22:18 9.9 °C 8.7 °C 990.1 hPa SW 12.9 km/h 20.9 km/h 92 % 0 mm
22:29 9.9 °C 8.6 °C 990.1 hPa SSW 12.4 km/h 25.9 km/h 91 % 0 mm
22:34 9.9 °C 8.4 °C 990.1 hPa SW 8.9 km/h 16.1 km/h 90 % 0 mm
22:39 9.9 °C 8.4 °C 990.1 hPa WSW 10.6 km/h 18.5 km/h 90 % 0 mm
22:44 9.9 °C 8.4 °C 990.1 hPa SSW 9.2 km/h 16.7 km/h 90 % 0 mm
22:49 9.9 °C 8.3 °C 990.1 hPa West 10.6 km/h 18.5 km/h 90 % 0 mm
22:54 9.8 °C 8.1 °C 990.1 hPa SW 5.6 km/h 14.8 km/h 89 % 0 mm
22:59 9.8 °C 8.1 °C 990.1 hPa SW 10.9 km/h 19.3 km/h 89 % 0 mm
23:04 9.8 °C 8.1 °C 990.1 hPa WSW 10.1 km/h 20.9 km/h 89 % 0 mm
23:09 9.8 °C 8.1 °C 990.1 hPa SW 8.7 km/h 20.4 km/h 89 % 0 mm
23:14 9.8 °C 7.9 °C 990.1 hPa SSW 10.1 km/h 16.7 km/h 88 % 0 mm
23:19 9.7 °C 7.8 °C 990.1 hPa SSW 7.7 km/h 18.5 km/h 88 % 0 mm
23:24 9.7 °C 7.8 °C 990.1 hPa SSW 6.4 km/h 13 km/h 88 % 0 mm
23:29 9.7 °C 7.9 °C 990.1 hPa SSW 3.7 km/h 8 km/h 89 % 0 mm
23:34 9.6 °C 7.9 °C 990.1 hPa SSW 8.4 km/h 17.7 km/h 89 % 0 mm
23:35 9.6 °C 7.9 °C 990.1 hPa South 7.2 km/h 18.5 km/h 89 % 0 mm
23:40 9.6 °C 7.8 °C 990.1 hPa SW 9.7 km/h 22.2 km/h 89 % 0 mm
23:45 9.6 °C 7.8 °C 990.4 hPa South 10.3 km/h 22.2 km/h 89 % 0 mm
23:50 9.6 °C 7.8 °C 990.4 hPa SSE 7.7 km/h 11.3 km/h 89 % 0 mm
23:55 9.6 °C 7.8 °C 990.4 hPa WSW 3.7 km/h 14.8 km/h 89 % 0 mm
Crab Meadow Weather
Compliments of Weather Underground - 3 mb

Script developed by  Jim McMurry - jmcmurry@mwt.net Adapted for the template by  Wim van der Kuil - Leuven-Template.eu

Weather Terms: Waterspout - In general, a tornado occurring over water. Specifically, it refers to a small, relatively weak rotating column of air over water beneath a towering cumulus or cumulonimbus cloud. They occasionally occur over Lake Michigan in late summer with unusually cold air aloft.